createdAt,value
2019-01-22T00:00:53.600Z,-1.50
2019-01-22T00:03:23.109Z,-1.50
2019-01-22T00:05:52.598Z,-1.60
2019-01-22T00:08:22.775Z,-1.70
2019-01-22T00:10:52.719Z,-1.70
2019-01-22T00:13:22.707Z,-1.80
2019-01-22T00:15:52.302Z,-1.80
2019-01-22T00:18:22.237Z,-1.80
2019-01-22T00:20:51.747Z,-1.80
2019-01-22T00:23:22.059Z,-1.80
2019-01-22T00:25:51.874Z,-1.70
2019-01-22T00:28:21.803Z,-1.70
2019-01-22T00:30:51.832Z,-1.70
2019-01-22T00:33:21.335Z,-1.70
2019-01-22T00:35:50.946Z,-1.70
2019-01-22T00:38:20.486Z,-1.70
2019-01-22T00:40:50.343Z,-1.80
2019-01-22T00:43:19.975Z,-1.80
2019-01-22T00:45:49.530Z,-1.80
2019-01-22T00:48:19.059Z,-1.80
2019-01-22T00:50:48.907Z,-1.80
2019-01-22T00:53:18.650Z,-1.80
2019-01-22T00:55:48.222Z,-1.80
2019-01-22T00:58:17.918Z,-1.90
2019-01-22T01:00:47.434Z,-1.90
2019-01-22T01:03:17.127Z,-1.80
2019-01-22T01:05:46.694Z,-1.80
2019-01-22T01:08:16.506Z,-1.80
2019-01-22T01:10:46.083Z,-1.80
2019-01-22T01:13:15.810Z,-1.80
2019-01-22T01:15:45.879Z,-1.80
2019-01-22T01:18:15.286Z,-1.70
2019-01-22T01:20:45.019Z,-1.70
2019-01-22T01:23:16.883Z,-1.70
2019-01-22T01:25:46.702Z,-1.90
2019-01-22T01:28:16.605Z,-1.90
2019-01-22T01:30:46.138Z,-2.00
2019-01-22T01:33:15.831Z,-2.00
2019-01-22T01:35:45.332Z,-2.00
2019-01-22T01:38:15.147Z,-2.00
2019-01-22T01:40:44.656Z,-2.00
2019-01-22T01:43:14.154Z,-2.20
2019-01-22T01:45:43.678Z,-2.40
2019-01-22T01:48:13.175Z,-2.50
2019-01-22T01:50:42.881Z,-2.60
2019-01-22T01:53:12.582Z,-2.50
2019-01-22T01:55:42.783Z,-2.40
2019-01-22T01:58:12.701Z,-2.30
2019-01-22T02:00:42.779Z,-2.20
2019-01-22T02:03:12.274Z,-2.30
2019-01-22T02:05:41.963Z,-2.30
2019-01-22T02:08:11.406Z,-2.40
2019-01-22T02:10:41.035Z,-2.40
2019-01-22T02:13:11.274Z,-2.40
2019-01-22T02:15:44.751Z,-2.40
2019-01-22T02:18:17.334Z,-2.40
2019-01-22T02:20:53.147Z,-2.40
2019-01-22T02:23:31.061Z,-2.50
2019-01-22T02:26:10.475Z,-2.50
2019-01-22T02:28:59.751Z,-2.60
2019-01-22T02:31:35.524Z,-2.50
2019-01-22T02:34:11.630Z,-2.50
2019-01-22T02:37:08.626Z,-2.50
2019-01-22T02:39:41.198Z,-2.50
2019-01-22T02:42:16.349Z,-2.50
2019-01-22T02:45:22.554Z,-2.50
2019-01-22T02:47:58.702Z,-2.50
2019-01-22T02:50:50.879Z,-2.60
2019-01-22T02:53:26.591Z,-2.60
2019-01-22T02:56:04.382Z,-2.60
2019-01-22T02:58:52.267Z,-2.60
2019-01-22T03:01:27.386Z,-2.60
2019-01-22T03:04:03.545Z,-2.60
2019-01-22T03:07:09.811Z,-2.60
2019-01-22T03:09:45.218Z,-2.60
2019-01-22T03:12:17.791Z,-2.60
2019-01-22T03:15:11.404Z,-2.60
2019-01-22T03:17:53.142Z,-2.80
2019-01-22T03:20:26.271Z,-2.70
2019-01-22T03:23:35.302Z,-2.80
2019-01-22T03:26:10.737Z,-2.80
2019-01-22T03:28:46.083Z,-2.80
2019-01-22T03:31:19.424Z,-2.90
2019-01-22T03:33:53.210Z,-2.90
2019-01-22T03:36:46.408Z,-2.90
2019-01-22T03:39:31.093Z,-2.80
2019-01-22T03:42:20.768Z,-2.70
2019-01-22T03:45:11.539Z,-2.70
2019-01-22T03:47:56.137Z,-2.70
2019-01-22T03:50:34.591Z,-2.80
2019-01-22T03:53:35.694Z,-2.80
2019-01-22T03:56:23.371Z,-2.70
2019-01-22T03:58:52.963Z,-2.70
2019-01-22T04:01:22.610Z,-2.80
2019-01-22T04:03:52.078Z,-2.90
2019-01-22T04:06:23.145Z,-2.80
2019-01-22T04:08:55.163Z,-2.80
2019-01-22T04:11:26.279Z,-2.80
2019-01-22T04:13:56.161Z,-2.80
2019-01-22T04:16:26.177Z,-2.90
2019-01-22T04:18:56.221Z,-2.90
2019-01-22T04:21:28.387Z,-2.90
2019-01-22T04:24:12.512Z,-2.90
2019-01-22T04:27:02.902Z,-2.90
2019-01-22T04:29:53.678Z,-2.80
2019-01-22T04:32:26.644Z,-2.80
2019-01-22T04:34:59.223Z,-2.90
2019-01-22T04:37:38.182Z,-2.90
2019-01-22T04:40:34.834Z,-2.90
2019-01-22T04:43:13.259Z,-2.90
2019-01-22T04:45:51.599Z,-2.90
2019-01-22T04:48:29.859Z,-2.90
2019-01-22T04:51:14.268Z,-2.90
2019-01-22T04:53:49.906Z,-2.90
2019-01-22T04:56:36.995Z,-2.90
2019-01-22T04:59:43.275Z,-2.90
2019-01-22T05:02:36.669Z,-2.80
2019-01-22T05:05:26.165Z,-2.70
2019-01-22T05:08:10.362Z,-2.70
2019-01-22T05:10:46.198Z,-2.60
2019-01-22T05:13:21.624Z,-2.60
2019-01-22T05:16:06.026Z,-2.60
2019-01-22T05:18:50.471Z,-2.80
2019-01-22T05:21:41.087Z,-2.80
2019-01-22T05:24:46.655Z,-2.80
2019-01-22T05:27:24.892Z,-2.80
2019-01-22T05:30:27.838Z,-2.70
2019-01-22T05:33:21.603Z,-2.70
2019-01-22T05:36:12.534Z,-2.70
2019-01-22T05:38:45.250Z,-2.70
2019-01-22T05:41:35.851Z,-2.80
2019-01-22T05:44:08.372Z,-2.80
2019-01-22T05:47:02.068Z,-2.80
2019-01-22T05:49:59.298Z,-2.80
2019-01-22T05:53:01.756Z,-2.70
2019-01-22T05:55:37.906Z,-2.60
2019-01-22T05:58:13.278Z,-2.50
2019-01-22T06:00:45.806Z,-2.50
2019-01-22T06:03:27.364Z,-2.40
2019-01-22T06:06:03.308Z,-2.30
2019-01-22T06:08:47.651Z,-2.30
2019-01-22T06:11:43.426Z,-2.30
2019-01-22T06:14:21.547Z,-2.20
2019-01-22T06:16:56.623Z,-2.30
2019-01-22T06:19:55.879Z,-2.30
2019-01-22T06:22:50.986Z,-2.20
2019-01-22T06:25:38.445Z,-2.20
2019-01-22T06:28:11.026Z,-2.10
2019-01-22T06:30:59.970Z,-2.20
2019-01-22T06:33:32.675Z,-2.10
2019-01-22T06:36:38.150Z,-2.10
2019-01-22T06:39:19.567Z,-2.20
2019-01-22T06:42:08.834Z,-2.20
2019-01-22T06:44:44.587Z,-2.20
2019-01-22T06:47:20.255Z,-1.90
2019-01-22T06:50:01.855Z,-1.90
2019-01-22T06:52:54.559Z,-2.00
2019-01-22T06:55:27.259Z,-2.00
2019-01-22T06:58:05.511Z,-1.90
2019-01-22T07:00:38.131Z,-1.90
2019-01-22T07:03:25.739Z,-1.90
2019-01-22T07:06:07.049Z,-1.90
2019-01-22T07:09:10.391Z,-1.90
2019-01-22T07:11:49.358Z,-1.90
2019-01-22T07:14:39.927Z,-1.90
2019-01-22T07:17:18.402Z,-1.90
2019-01-22T07:19:59.774Z,-1.80
2019-01-22T07:22:44.214Z,-1.80
2019-01-22T07:25:19.487Z,-1.80
2019-01-22T07:27:57.522Z,-1.80
2019-01-22T07:30:30.030Z,-1.60
2019-01-22T07:33:14.660Z,-1.60
2019-01-22T07:36:04.771Z,-1.70
2019-01-22T07:38:43.114Z,-1.70
2019-01-22T07:41:15.951Z,-1.70
2019-01-22T07:43:54.331Z,-1.60
2019-01-22T07:46:43.095Z,-1.50
2019-01-22T07:49:24.930Z,-1.40
2019-01-22T07:52:19.895Z,-1.30
2019-01-22T07:55:07.157Z,-1.40
2019-01-22T07:58:05.014Z,-1.50
2019-01-22T08:00:48.803Z,-1.50
2019-01-22T08:03:22.942Z,-1.40
2019-01-22T08:05:57.222Z,-1.40
2019-01-22T08:08:31.094Z,-1.30
2019-01-22T08:11:15.342Z,-1.20
2019-01-22T08:13:57.246Z,-1.20
2019-01-22T08:16:55.277Z,-1.20
2019-01-22T08:19:49.139Z,-1.30
2019-01-22T08:22:39.552Z,-1.30
2019-01-22T08:25:20.975Z,-1.30
2019-01-22T08:28:23.914Z,-1.30
2019-01-22T08:31:28.050Z,-1.20
2019-01-22T08:34:33.823Z,-1.20
2019-01-22T08:37:21.469Z,-1.10
2019-01-22T08:40:13.918Z,-1.00
2019-01-22T08:42:49.221Z,-1.00
2019-01-22T08:45:26.818Z,-0.90
2019-01-22T08:48:16.128Z,-0.90
2019-01-22T08:50:54.598Z,-0.80
2019-01-22T08:53:33.105Z,-0.80
2019-01-22T08:56:29.801Z,-0.80
2019-01-22T08:59:02.319Z,-0.80
2019-01-22T09:01:46.331Z,-0.60
2019-01-22T09:04:54.374Z,-0.70
2019-01-22T09:07:36.065Z,-0.70
2019-01-22T09:10:20.318Z,-0.60
2019-01-22T09:12:58.769Z,-0.60
2019-01-22T09:15:43.527Z,-0.50
2019-01-22T09:18:19.266Z,-0.40
2019-01-22T09:20:51.828Z,-0.30
2019-01-22T09:23:27.547Z,-0.30
2019-01-22T09:26:21.166Z,-0.20
2019-01-22T09:29:06.971Z,-0.20
2019-01-22T09:31:42.509Z,-0.10
2019-01-22T09:34:46.721Z,0.00
2019-01-22T09:37:19.323Z,-0.10
2019-01-22T09:39:49.288Z,-0.10
2019-01-22T09:42:19.374Z,-0.10
2019-01-22T09:44:48.871Z,0.00
2019-01-22T09:47:20.914Z,0.10
2019-01-22T09:49:50.655Z,0.20
2019-01-22T09:52:20.292Z,0.30
2019-01-22T09:54:50.051Z,0.40
2019-01-22T09:57:19.838Z,0.40
2019-01-22T09:59:50.039Z,0.50
2019-01-22T10:02:19.517Z,0.50
2019-01-22T10:04:49.541Z,0.40
2019-01-22T10:07:19.557Z,0.40
2019-01-22T10:09:49.152Z,0.20
2019-01-22T10:12:19.686Z,0.10
2019-01-22T10:14:49.423Z,0.10
2019-01-22T10:17:19.451Z,0.20
2019-01-22T10:19:49.232Z,0.30
2019-01-22T10:22:18.778Z,0.30
2019-01-22T10:24:48.192Z,0.20
2019-01-22T10:27:17.896Z,0.30
2019-01-22T10:29:47.669Z,0.50
2019-01-22T10:32:17.394Z,0.60
2019-01-22T10:34:47.179Z,0.60
2019-01-22T10:37:16.734Z,0.70
2019-01-22T10:39:46.147Z,0.80
2019-01-22T10:42:15.594Z,0.90
2019-01-22T10:44:45.427Z,1.00
2019-01-22T10:47:14.891Z,1.00
2019-01-22T10:49:44.326Z,1.10
2019-01-22T10:52:14.071Z,1.10
2019-01-22T10:54:43.651Z,1.20
2019-01-22T10:57:13.246Z,1.20
2019-01-22T10:59:42.662Z,1.20
2019-01-22T11:02:12.086Z,1.30
2019-01-22T11:04:41.617Z,1.30
2019-01-22T11:07:11.128Z,1.30
2019-01-22T11:09:40.696Z,1.40
2019-01-22T11:12:10.351Z,1.50
2019-01-22T11:14:39.771Z,1.50
2019-01-22T11:17:09.260Z,1.60
2019-01-22T11:19:39.263Z,1.50
2019-01-22T11:22:08.840Z,1.40
2019-01-22T11:24:38.560Z,1.50
2019-01-22T11:27:08.011Z,1.50
2019-01-22T11:29:37.767Z,1.40
2019-01-22T11:32:07.263Z,1.40
2019-01-22T11:34:36.767Z,1.50
2019-01-22T11:37:07.367Z,1.40
2019-01-22T11:39:36.842Z,1.40
2019-01-22T11:42:06.343Z,1.50
2019-01-22T11:44:36.090Z,1.50
2019-01-22T11:47:05.748Z,1.50
2019-01-22T11:49:35.631Z,1.60
2019-01-22T11:52:05.679Z,1.60
2019-01-22T11:54:35.632Z,1.60
2019-01-22T11:57:05.493Z,1.50
2019-01-22T11:59:37.709Z,1.50
2019-01-22T12:02:07.662Z,1.50
2019-01-22T12:04:37.431Z,1.60
2019-01-22T12:07:07.212Z,1.70
2019-01-22T12:09:37.190Z,1.80
2019-01-22T12:12:06.655Z,1.80
2019-01-22T12:14:36.424Z,1.80
2019-01-22T12:17:05.989Z,1.80
2019-01-22T12:19:35.543Z,1.90
2019-01-22T12:22:05.953Z,1.90
2019-01-22T12:24:35.418Z,2.00
2019-01-22T12:27:05.147Z,2.00
2019-01-22T12:29:34.991Z,2.10
2019-01-22T12:32:04.767Z,2.20
2019-01-22T12:34:34.578Z,2.20
2019-01-22T12:37:04.511Z,2.20
2019-01-22T12:39:34.440Z,2.30
2019-01-22T12:42:04.018Z,2.30
2019-01-22T12:44:33.583Z,2.40
2019-01-22T12:47:03.170Z,2.30
2019-01-22T12:49:35.921Z,2.10
2019-01-22T12:52:05.020Z,2.00
2019-01-22T12:54:34.799Z,2.00
2019-01-22T12:57:04.711Z,2.00
2019-01-22T12:59:34.303Z,1.90
2019-01-22T13:02:05.259Z,2.00
2019-01-22T13:04:38.426Z,2.00
2019-01-22T13:07:07.903Z,2.10
2019-01-22T13:09:38.329Z,2.20
2019-01-22T13:12:09.175Z,2.20
2019-01-22T13:14:38.654Z,2.20
2019-01-22T13:17:08.311Z,2.20
2019-01-22T13:19:38.296Z,2.30
2019-01-22T13:22:07.754Z,2.20
2019-01-22T13:24:37.431Z,2.20
2019-01-22T13:27:08.101Z,2.10
2019-01-22T13:29:38.170Z,2.10
2019-01-22T13:32:08.290Z,2.00
2019-01-22T13:34:38.015Z,2.00
2019-01-22T13:37:07.851Z,1.90
2019-01-22T13:39:37.271Z,1.90
2019-01-22T13:42:06.966Z,1.90
2019-01-22T13:44:36.968Z,1.80
2019-01-22T13:47:07.046Z,1.80
2019-01-22T13:49:36.832Z,1.70
2019-01-22T13:52:06.606Z,1.80
2019-01-22T13:54:44.101Z,1.90
2019-01-22T13:57:13.648Z,1.90
2019-01-22T13:59:43.066Z,1.90
2019-01-22T14:02:12.676Z,1.90
2019-01-22T14:04:42.094Z,1.80
2019-01-22T14:07:11.518Z,1.80
2019-01-22T14:09:41.243Z,1.80
2019-01-22T14:12:11.047Z,1.90
2019-01-22T14:14:41.063Z,2.00
2019-01-22T14:17:10.670Z,1.90
2019-01-22T14:19:40.220Z,1.90
2019-01-22T14:22:10.091Z,1.90
2019-01-22T14:24:40.086Z,1.90
2019-01-22T14:27:09.863Z,1.80
2019-01-22T14:29:39.419Z,1.70
2019-01-22T14:32:09.051Z,1.70
2019-01-22T14:34:38.479Z,1.70
2019-01-22T14:37:07.975Z,1.70
2019-01-22T14:39:37.562Z,1.70
2019-01-22T14:42:07.145Z,1.80
2019-01-22T14:44:36.589Z,1.80
2019-01-22T14:47:06.222Z,1.80
2019-01-22T14:49:36.295Z,1.70
2019-01-22T14:52:07.199Z,1.60
2019-01-22T14:54:36.683Z,1.60
2019-01-22T14:57:07.323Z,1.70
2019-01-22T14:59:36.866Z,1.60
2019-01-22T15:02:06.334Z,1.70
2019-01-22T15:04:36.003Z,1.60
2019-01-22T15:07:05.487Z,1.60
2019-01-22T15:09:35.310Z,1.60
2019-01-22T15:12:05.063Z,1.50
2019-01-22T15:14:34.575Z,1.50
2019-01-22T15:17:04.343Z,1.60
2019-01-22T15:19:34.150Z,1.70
2019-01-22T15:22:03.927Z,1.60
2019-01-22T15:24:34.724Z,1.50
2019-01-22T15:27:04.592Z,1.30
2019-01-22T15:29:34.066Z,1.30
2019-01-22T15:32:03.785Z,1.30
2019-01-22T15:34:33.374Z,1.30
2019-01-22T15:37:02.886Z,1.30
2019-01-22T15:39:32.343Z,1.30
2019-01-22T15:42:02.158Z,1.40
2019-01-22T15:44:31.796Z,1.30
2019-01-22T15:47:01.283Z,1.30
2019-01-22T15:49:30.744Z,1.30
2019-01-22T15:52:00.422Z,1.20
2019-01-22T15:54:29.955Z,1.20
2019-01-22T15:56:59.444Z,1.20
2019-01-22T15:59:29.052Z,1.30
2019-01-22T16:01:59.025Z,1.30
2019-01-22T16:04:28.575Z,1.30
2019-01-22T16:06:58.494Z,1.30
2019-01-22T16:09:28.083Z,1.30
2019-01-22T16:11:57.755Z,1.40
2019-01-22T16:14:27.360Z,1.40
2019-01-22T16:16:56.958Z,1.30
2019-01-22T16:19:26.415Z,1.40
2019-01-22T16:21:55.967Z,1.40
2019-01-22T16:24:25.466Z,1.40
2019-01-22T16:26:55.273Z,1.40
2019-01-22T16:29:25.128Z,1.40
2019-01-22T16:31:54.582Z,1.40
2019-01-22T16:34:24.127Z,1.50
2019-01-22T16:36:53.647Z,1.40
2019-01-22T16:39:23.230Z,1.50
2019-01-22T16:41:53.084Z,1.50
2019-01-22T16:44:22.605Z,1.50
2019-01-22T16:46:52.484Z,1.50
2019-01-22T16:49:21.894Z,1.50
2019-01-22T16:51:51.615Z,1.50
2019-01-22T16:54:21.311Z,1.50
2019-01-22T16:56:50.912Z,1.50
2019-01-22T16:59:20.555Z,1.50
2019-01-22T17:01:50.118Z,1.40
2019-01-22T17:04:19.606Z,1.50
2019-01-22T17:06:49.174Z,1.50
2019-01-22T17:09:18.750Z,1.50
2019-01-22T17:11:48.299Z,1.50
2019-01-22T17:14:17.911Z,1.50
2019-01-22T17:16:47.462Z,1.50
2019-01-22T17:19:17.080Z,1.40
2019-01-22T17:21:47.015Z,1.40
2019-01-22T17:24:35.859Z,1.40
2019-01-22T17:27:07.362Z,1.50
2019-01-22T17:29:37.157Z,1.50
2019-01-22T17:32:26.372Z,1.60
2019-01-22T17:34:56.402Z,1.60
2019-01-22T17:37:25.861Z,1.60
2019-01-22T17:39:55.735Z,1.60
2019-01-22T17:42:25.470Z,1.60
2019-01-22T17:44:54.886Z,1.60
2019-01-22T17:47:24.399Z,1.50
2019-01-22T17:49:53.908Z,1.50
2019-01-22T17:52:23.506Z,1.60
2019-01-22T17:54:52.947Z,1.50
2019-01-22T17:57:24.942Z,1.50
2019-01-22T17:59:54.843Z,1.50
2019-01-22T18:02:24.876Z,1.50
2019-01-22T18:04:54.559Z,1.60
2019-01-22T18:07:24.010Z,1.60
2019-01-22T18:09:54.502Z,1.50
2019-01-22T18:12:23.910Z,1.50
2019-01-22T18:14:53.507Z,1.40
2019-01-22T18:17:23.332Z,1.40
2019-01-22T18:19:52.947Z,1.50
2019-01-22T18:22:22.523Z,1.50
2019-01-22T18:24:52.484Z,1.60
2019-01-22T18:27:21.971Z,1.60
2019-01-22T18:29:51.619Z,1.70
2019-01-22T18:32:21.314Z,1.70
2019-01-22T18:34:50.922Z,1.60
2019-01-22T18:37:21.320Z,1.50
2019-01-22T18:39:50.762Z,1.60
2019-01-22T18:42:20.471Z,1.60
2019-01-22T18:44:50.254Z,1.70
2019-01-22T18:47:19.951Z,1.60
2019-01-22T18:49:49.618Z,1.60
2019-01-22T18:52:19.106Z,1.60
2019-01-22T18:54:54.802Z,1.60
2019-01-22T18:57:27.637Z,1.70
2019-01-22T18:59:55.611Z,1.70
2019-01-22T19:02:25.103Z,1.70
2019-01-22T19:04:54.860Z,1.50
2019-01-22T19:07:24.380Z,1.50
2019-01-22T19:09:53.818Z,1.40
2019-01-22T19:12:23.339Z,1.30
2019-01-22T19:14:52.922Z,1.40
2019-01-22T19:17:22.635Z,1.50
2019-01-22T19:19:52.047Z,1.40
2019-01-22T19:22:21.463Z,1.40
2019-01-22T19:24:51.143Z,1.50
2019-01-22T19:27:20.730Z,1.50
2019-01-22T19:29:54.159Z,1.50
2019-01-22T19:32:23.670Z,1.50
2019-01-22T19:34:54.211Z,1.60
2019-01-22T19:37:23.642Z,1.60
2019-01-22T19:39:53.339Z,1.60
2019-01-22T19:42:23.091Z,1.70
2019-01-22T19:44:52.827Z,1.70
2019-01-22T19:47:22.667Z,1.70
2019-01-22T19:49:52.403Z,1.70
2019-01-22T19:52:21.820Z,1.70
2019-01-22T19:54:51.772Z,1.70
2019-01-22T19:57:21.434Z,1.60
2019-01-22T19:59:50.970Z,1.60
2019-01-22T20:02:20.751Z,1.60
2019-01-22T20:04:56.428Z,1.60
2019-01-22T20:07:26.707Z,1.50
2019-01-22T20:09:56.831Z,1.50
2019-01-22T20:12:26.618Z,1.60
2019-01-22T20:14:56.418Z,1.60
2019-01-22T20:17:25.974Z,1.50
2019-01-22T20:19:55.771Z,1.40
2019-01-22T20:22:25.960Z,1.40
2019-01-22T20:24:56.858Z,1.40
2019-01-22T20:27:26.495Z,1.50
2019-01-22T20:29:56.499Z,1.60
2019-01-22T20:32:25.962Z,1.60
2019-01-22T20:34:55.963Z,1.50
2019-01-22T20:37:25.755Z,1.40
2019-01-22T20:39:55.169Z,1.40
2019-01-22T20:42:25.742Z,1.50
2019-01-22T20:44:55.363Z,1.50
2019-01-22T20:47:24.782Z,1.60
2019-01-22T20:49:54.212Z,1.60
2019-01-22T20:52:23.663Z,1.70
2019-01-22T20:54:53.247Z,1.80
2019-01-22T20:57:22.916Z,1.70
2019-01-22T20:59:52.359Z,1.70
2019-01-22T21:02:21.850Z,1.60
2019-01-22T21:04:51.483Z,1.60
2019-01-22T21:07:21.223Z,1.60
2019-01-22T21:09:51.175Z,1.70
2019-01-22T21:12:21.155Z,1.70
2019-01-22T21:14:50.904Z,1.80
2019-01-22T21:17:20.319Z,1.70
2019-01-22T21:19:50.223Z,1.60
2019-01-22T21:22:20.059Z,1.60
2019-01-22T21:24:49.578Z,1.60
2019-01-22T21:27:19.274Z,1.70
2019-01-22T21:29:49.031Z,1.70
2019-01-22T21:32:19.354Z,1.70
2019-01-22T21:34:48.987Z,1.70
2019-01-22T21:37:18.563Z,1.70
2019-01-22T21:39:48.727Z,1.80
2019-01-22T21:42:18.441Z,1.70
2019-01-22T21:44:47.891Z,1.70
2019-01-22T21:47:17.475Z,1.60
2019-01-22T21:49:47.180Z,1.50
2019-01-22T21:52:16.908Z,1.40
2019-01-22T21:54:46.398Z,1.40
2019-01-22T21:57:15.815Z,1.50
2019-01-22T21:59:45.258Z,1.60
2019-01-22T22:02:14.865Z,1.60
2019-01-22T22:04:44.423Z,1.70
2019-01-22T22:07:13.911Z,1.70
2019-01-22T22:09:43.494Z,1.70
2019-01-22T22:12:12.918Z,1.70
2019-01-22T22:14:42.935Z,1.70
2019-01-22T22:17:12.570Z,1.70
2019-01-22T22:19:42.253Z,1.70
2019-01-22T22:22:12.306Z,1.70
2019-01-22T22:24:42.092Z,1.60
2019-01-22T22:27:11.571Z,1.70
2019-01-22T22:29:41.031Z,1.80
2019-01-22T22:32:10.451Z,1.80
2019-01-22T22:34:40.719Z,1.80
2019-01-22T22:37:11.174Z,1.80
2019-01-22T22:39:40.642Z,1.80
2019-01-22T22:42:10.251Z,1.80
2019-01-22T22:44:39.971Z,1.90
2019-01-22T22:47:09.403Z,1.80
2019-01-22T22:49:39.393Z,1.90
2019-01-22T22:52:08.887Z,1.90
2019-01-22T22:54:38.310Z,1.80
2019-01-22T22:57:07.730Z,1.80
2019-01-22T22:59:37.724Z,1.80
2019-01-22T23:02:07.583Z,1.70
2019-01-22T23:04:37.412Z,1.70
2019-01-22T23:07:06.924Z,1.70
2019-01-22T23:09:36.390Z,1.70
2019-01-22T23:12:05.872Z,1.80
2019-01-22T23:14:35.659Z,1.80
2019-01-22T23:17:05.392Z,1.80
2019-01-22T23:19:36.331Z,1.70
2019-01-22T23:22:06.348Z,1.70
2019-01-22T23:24:35.980Z,1.70
2019-01-22T23:27:05.391Z,1.70
2019-01-22T23:29:35.171Z,1.60
2019-01-22T23:32:05.718Z,1.60
2019-01-22T23:34:35.383Z,1.70
2019-01-22T23:37:05.942Z,1.80
2019-01-22T23:39:35.475Z,1.80
2019-01-22T23:42:05.135Z,1.80
2019-01-22T23:44:34.871Z,1.70
2019-01-22T23:47:04.995Z,1.70
2019-01-22T23:49:34.479Z,1.70
2019-01-22T23:52:04.103Z,1.70
2019-01-22T23:54:33.815Z,1.70
2019-01-22T23:57:03.308Z,1.80
2019-01-22T23:59:33.055Z,1.80
